Hovedside
METAR-TAF:

METAR-TAF

Lufthavner :

Tartu lufthavn

Tartu, Estland

breddegrad: 58-18N, lengdegrad: 026-44E, høyde over havet: 59 m

Gjeldene værobservasjon

Denne rapporten ble laget for 1 time og 13 minutter siden, klokken 07:50 UTC
Vind 14 kt fra Nord-nordøst
Temperatur 5°C
Luftfuktighet 81%
Trykk 1027 hPa
Sikt 10 km eller mer
lett regn

METAR: EETU 180750Z AUTO 03014KT 9999 -RA BKN017/// BKN022/// OVC029/// 05/02 Q1027 RESHUP REDZ

Tid: 11:03 (09:03 UTC)

Varsel

Denne rapporten ble laget for 23 timer og 3 minutter siden, klokken 10:00 UTC
Varsel gyldig fra 17. klokken 11 UTC til 17. klokken 17 UTC
Vind 14 kt fra Vest-sørvest
Sikt: 4000 m
Overskyet i en høyde av 400 ft
dis
Midlertidig
fra 17. klokken 11 UTC til 17. klokken 12 UTC
Sikt: 2000 m
duskregn
Blir
fra 17. klokken 12 UTC til 17. klokken 14 UTC
Sikt 10 km eller mer
Overskyet i en høyde av 1000 ft

TAF: EETU 171000Z 1711/1717 24014KT 4000 BR OVC004 TEMPO 1711/1712 2000 DZ BECMG 1712/1714 9999 NSW OVC010

Værobservasjoner og værvarsel for over 4000 flyplasser (METAR- og TAF-rapporter).

Tilgjengelige stasjoner er representert av de røde og gule prikkene på kartet.

Hold musepekeren over prikken for å se navnet på stasjonen.

Klikk så for å se værobservasjoner og -varsler.

For å forandre kartet kan du klikke på den grønne knappen med svart kryss for å zoome inn, på den grønne knappen med strek for å zoome ut, eller på de grønne pilene for å se tilstøtende kart.


METAR-TAF: